Terminal Aerodrome Forecast
Issued by NWS Tallahassee, FL

Home | Current Version | Previous Version | Text Only | Print | Product List | Glossary On
Versions: 1 2 3 4 5 6 7 8 9 10 11 12 13 14 15 16 17 18 19 20 21
410
FTUS42 KTAE 211729
TAFTLH
TAF
KTLH 211729Z 2118/2218 20015G25KT P6SM -SHRA BKN015 OVC020
     FM211900 22015G25KT 5SM -TSRA OVC025CB
      TEMPO 2119/2121 30025G40KT 2SM +TSRA BR OVC015CB
     FM212200 19008KT P6SM OVC025
     FM220600 19008KT 5SM -RA BR OVC008
     FM221400 20012G20KT 3SM TSRA OVC015CB=

USA.gov is the U.S. government's official web portal to all federal, state and local government web resources and services.